ENSD/SDN METAR and TAF weather

Enter ICAO airport designator
Station Type Date Time Source
ENSD METAR 2018/12/12 20:20 UTC NOAA

ENSD 122020Z VRB02KT CAVOK M02/M06 Q1031 RMK WIND 1138FT 08005KT


Station Type Date Time Source
ENSD Decoded METAR 2018/12/12 20:20 UTC NOAA

Sandane / Anda, Norway (ENSD) 61-50N 006-07E 60M
Dec 12, 2018 - 03:20 PM EST / 2018.12.12 2020 UTC
Wind: Variable at 2 MPH (2 KT):0
Visibility: greater than 7 mile(s):0
Temperature: 28 F (-2 C)
Dew Point: 21 F (-6 C)
Relative Humidity: 74%
Pressure (altimeter): 30.45 in. Hg (1031 hPa)
ob: ENSD 122020Z VRB02KT CAVOK M02/M06 Q1031 RMK WIND 1138FT 08005KT
cycle: 20

Station Type Date Time Source
ENSD TAF UTC NOAA

Error!


Example: see airport list